Time;durP1;ratioP1;P1;durP2;ratioP2;P2;SDS_P1;SDS_P2;PMS_P1;PMS_P2;Temp;Humidity;BMP_temperature;BMP_pressure;BME280_temperature;BME280_humidity;BME280_pressure;Samples;Min_cycle;Max_cycle;Signal;HPM_P1;HPM_P2
2022/11/10 00:01:45;;;;;;;64.75;38.00;;;;;;;5.18;100.00;98844.28;2102180;85;22143;-91
2022/11/10 00:04:46;;;;;;;70.87;39.48;;;;;;;5.18;100.00;98850.30;2102191;85;21054;-91
2022/11/10 00:07:47;;;;;;;73.10;39.90;;;;;;;5.17;100.00;98854.33;2102051;85;21071;-91
2022/11/10 00:10:57;;;;;;;71.12;37.53;;;;;;;5.18;100.00;98857.27;2102267;84;21119;-91
2022/11/10 00:17:17;;;;;;;64.58;37.30;;;;;;;5.18;100.00;98855.97;2106755;85;21003;-92
2022/11/10 00:20:17;;;;;;;68.33;38.92;;;;;;;5.17;100.00;98849.95;2103670;85;21022;-90
2022/11/10 00:23:18;;;;;;;61.53;36.55;;;;;;;5.16;100.00;98855.30;2102802;84;20995;-91
2022/11/10 00:26:19;;;;;;;69.17;39.35;;;;;;;5.13;100.00;98851.21;2102581;85;21007;-91
2022/11/10 00:29:20;;;;;;;65.57;38.15;;;;;;;5.13;100.00;98852.03;2102494;83;21566;-92
2022/11/10 00:32:20;;;;;;;68.35;38.08;;;;;;;5.12;100.00;98858.63;2102578;84;21022;-92
2022/11/10 00:35:21;;;;;;;64.85;36.90;;;;;;;5.10;100.00;98859.27;2102691;85;21015;-92
2022/11/10 00:38:22;;;;;;;66.17;36.53;;;;;;;5.10;100.00;98862.67;2102418;85;21014;-91
2022/11/10 00:41:23;;;;;;;63.92;36.63;;;;;;;5.12;100.00;98869.86;2090017;84;21163;-92
2022/11/10 00:44:23;;;;;;;58.42;33.45;;;;;;;5.16;100.00;98869.57;2102907;84;21055;-90
2022/11/10 00:47:24;;;;;;;66.05;36.80;;;;;;;5.13;100.00;98865.01;2103033;85;21030;-90
2022/11/10 00:50:25;;;;;;;58.28;33.92;;;;;;;5.15;100.00;98867.45;2102966;85;20995;-91
2022/11/10 00:53:25;;;;;;;61.25;36.30;;;;;;;5.13;100.00;98875.88;2102568;85;21003;-91
2022/11/10 00:56:26;;;;;;;62.95;34.53;;;;;;;5.10;100.00;98883.44;2105217;84;21008;-91
2022/11/10 00:59:27;;;;;;;61.88;35.17;;;;;;;5.09;100.00;98871.91;2106284;84;21443;-90
2022/11/10 01:02:28;;;;;;;61.60;36.38;;;;;;;5.10;100.00;98867.05;2104403;85;21053;-92
2022/11/10 01:05:28;;;;;;;63.58;34.58;;;;;;;5.11;100.00;98873.39;2102853;85;21011;-92
2022/11/10 01:08:29;;;;;;;59.53;35.63;;;;;;;5.09;100.00;98870.12;2103035;85;20999;-92
2022/11/10 01:11:30;;;;;;;61.85;35.03;;;;;;;5.09;100.00;98872.72;2103421;84;21263;-93
2022/11/10 01:14:30;;;;;;;62.38;34.70;;;;;;;5.07;100.00;98873.83;2105506;85;20970;-91
2022/11/10 01:17:31;;;;;;;64.67;37.38;;;;;;;5.06;100.00;98877.39;2104994;85;21463;-92
2022/11/10 01:20:32;;;;;;;62.73;34.18;;;;;;;5.04;100.00;98873.64;2103105;85;20975;-91
2022/11/10 01:23:33;;;;;;;70.92;37.73;;;;;;;5.01;100.00;98872.59;2103084;85;20979;-92
2022/11/10 01:26:33;;;;;;;58.63;33.85;;;;;;;4.99;100.00;98877.12;2102490;85;21038;-93
2022/11/10 01:29:34;;;;;;;63.52;35.03;;;;;;;4.96;100.00;98877.41;2102456;85;21027;-92
2022/11/10 01:32:34;;;;;;;61.85;33.63;;;;;;;4.95;100.00;98880.15;2103941;78;21004;-96
2022/11/10 01:35:35;;;;;;;59.00;34.15;;;;;;;4.95;100.00;98880.97;2105251;85;21043;-89
2022/11/10 01:38:36;;;;;;;53.17;31.70;;;;;;;4.94;100.00;98888.86;2102749;85;21015;-90
2022/11/10 01:41:37;;;;;;;57.90;31.37;;;;;;;4.89;100.00;98879.40;2117089;83;21083;-90
2022/11/10 01:44:37;;;;;;;52.55;28.65;;;;;;;4.81;100.00;98875.72;2138771;83;20967;-85
2022/11/10 01:47:38;;;;;;;60.58;31.90;;;;;;;4.77;100.00;98873.55;2138692;83;21517;-92
2022/11/10 01:50:39;;;;;;;57.13;32.13;;;;;;;4.75;100.00;98884.04;2140487;83;21003;-85
2022/11/10 01:53:39;;;;;;;64.75;32.78;;;;;;;4.78;100.00;98876.48;2140405;83;21047;-86
2022/11/10 01:56:40;;;;;;;58.42;30.97;;;;;;;4.82;100.00;98877.83;2138174;83;21017;-89
2022/11/10 01:59:41;;;;;;;61.45;32.40;;;;;;;4.89;100.00;98891.89;2137076;83;20979;-89
2022/11/10 02:02:41;;;;;;;60.90;32.65;;;;;;;4.94;100.00;98892.76;2136648;82;21017;-90
2022/11/10 02:05:42;;;;;;;59.67;31.37;;;;;;;4.96;100.00;98893.46;2137129;82;21018;-90
2022/11/10 02:08:43;;;;;;;58.15;31.27;;;;;;;4.96;100.00;98896.05;2136292;83;20983;-89
2022/11/10 02:11:44;;;;;;;58.55;33.05;;;;;;;4.99;100.00;98900.95;2136261;83;20999;-89
2022/11/10 02:14:44;;;;;;;54.58;29.12;;;;;;;5.00;100.00;98901.30;2136417;83;21509;-89
2022/11/10 02:17:45;;;;;;;54.75;30.85;;;;;;;4.99;100.00;98908.27;2136560;83;21462;-89
2022/11/10 02:20:46;;;;;;;60.23;33.50;;;;;;;4.95;100.00;98910.81;2136453;83;20991;-89
2022/11/10 02:23:46;;;;;;;65.62;36.20;;;;;;;4.97;100.00;98923.16;2136488;83;21026;-88
2022/11/10 02:26:47;;;;;;;52.85;31.12;;;;;;;5.05;100.00;98915.98;2136527;83;20987;-89
2022/11/10 02:29:48;;;;;;;63.10;32.98;;;;;;;5.09;100.00;98924.63;2136272;83;21575;-89
2022/11/10 02:32:48;;;;;;;58.73;31.68;;;;;;;5.16;100.00;98917.59;2136281;83;21046;-88
2022/11/10 02:35:49;;;;;;;57.75;32.50;;;;;;;5.26;100.00;98911.41;2136422;83;20975;-88
2022/11/10 02:38:50;;;;;;;62.80;32.00;;;;;;;5.36;100.00;98914.80;2136416;83;21550;-90
2022/11/10 02:41:50;;;;;;;55.60;31.65;;;;;;;5.49;100.00;98907.20;2121652;83;21618;-88
2022/11/10 02:44:51;;;;;;;57.15;30.15;;;;;;;5.62;100.00;98915.47;2102350;85;21479;-88
2022/11/10 02:47:52;;;;;;;61.73;33.15;;;;;;;5.76;100.00;98926.70;2102681;84;21578;-89
2022/11/10 02:50:52;;;;;;;60.08;33.13;;;;;;;5.89;100.00;98921.16;2104055;85;20979;-85
2022/11/10 02:53:53;;;;;;;61.30;31.48;;;;;;;6.02;100.00;98922.14;2106096;84;21011;-84
2022/11/10 02:56:54;;;;;;;60.78;32.65;;;;;;;6.12;100.00;98913.80;2106213;84;20995;-85
2022/11/10 02:59:55;;;;;;;57.38;31.50;;;;;;;6.24;100.00;98932.97;2104195;84;21438;-88
2022/11/10 03:02:56;;;;;;;61.73;31.55;;;;;;;6.32;100.00;98933.54;2102650;85;21091;-87
2022/11/10 03:05:57;;;;;;;52.67;29.25;;;;;;;6.40;100.00;98921.92;2102051;85;21087;-89
2022/11/10 03:08:57;;;;;;;56.88;31.55;;;;;;;6.48;100.00;98929.77;2102148;85;20999;-89
2022/11/10 03:11:58;;;;;;;58.83;31.17;;;;;;;6.56;100.00;98931.16;2102023;85;21062;-88
2022/11/10 03:14:59;;;;;;;52.40;29.10;;;;;;;6.65;100.00;98929.94;2102105;84;20988;-88
2022/11/10 03:17:59;;;;;;;53.17;29.40;;;;;;;6.73;100.00;98923.50;2102110;85;22137;-90
2022/11/10 03:21:00;;;;;;;56.63;30.60;;;;;;;6.80;100.00;98933.66;2102036;85;21050;-87
2022/11/10 03:24:01;;;;;;;57.83;30.70;;;;;;;6.85;100.00;98930.09;2102308;85;20937;-88
2022/11/10 03:27:01;;;;;;;57.03;31.35;;;;;;;6.96;100.00;98941.60;2102114;85;20988;-88
2022/11/10 03:30:02;;;;;;;56.05;31.65;;;;;;;7.03;100.00;98942.61;2102943;85;21007;-85
2022/11/10 03:33:03;;;;;;;57.15;29.75;;;;;;;7.08;100.00;98939.56;2105129;85;20992;-84
2022/11/10 03:36:04;;;;;;;53.78;28.75;;;;;;;7.11;100.00;98937.47;2102259;85;20995;-87
2022/11/10 03:39:04;;;;;;;51.00;28.23;;;;;;;7.14;100.00;98940.27;2102052;85;20983;-88
2022/11/10 03:42:05;;;;;;;50.45;28.65;;;;;;;7.17;100.00;98937.36;2116107;83;21047;-89
2022/11/10 03:45:05;;;;;;;52.43;29.52;;;;;;;7.23;100.00;98940.66;2137685;81;21015;-84
2022/11/10 03:48:06;;;;;;;48.78;27.60;;;;;;;7.25;100.00;98946.53;2138645;83;21017;-87
2022/11/10 03:51:07;;;;;;;51.20;29.10;;;;;;;7.28;100.00;98946.70;2140147;83;21527;-85
2022/11/10 03:54:08;;;;;;;47.55;28.27;;;;;;;7.26;100.00;98941.65;2140326;83;21038;-86
2022/11/10 03:57:08;;;;;;;54.25;28.50;;;;;;;7.26;100.00;98943.44;2138649;83;21089;-89
2022/11/10 04:00:09;;;;;;;58.10;30.15;;;;;;;7.25;100.00;98951.73;2136779;83;21014;-89
2022/11/10 04:03:10;;;;;;;52.25;29.40;;;;;;;7.28;100.00;98949.30;2136884;83;21126;-89
2022/11/10 04:09:30;;;;;;;51.35;28.20;;;;;;;7.36;100.00;98947.57;2136427;82;21138;-88
2022/11/10 04:15:51;;;;;;;53.98;29.10;;;;;;;7.44;100.00;98957.23;2136621;83;21053;-89
2022/11/10 04:18:51;;;;;;;53.92;28.27;;;;;;;7.51;100.00;98961.35;2136720;83;21068;-90
2022/11/10 04:21:52;;;;;;;57.08;29.80;;;;;;;7.57;100.00;98968.53;2136558;83;21026;-89
2022/11/10 04:24:53;;;;;;;54.53;30.30;;;;;;;7.59;100.00;98958.77;2136801;83;20975;-90
2022/11/10 04:27:54;;;;;;;48.05;28.42;;;;;;;7.64;100.00;98965.16;2136583;83;21591;-89
2022/11/10 04:30:54;;;;;;;49.58;26.85;;;;;;;7.69;100.00;98974.65;2136556;83;21006;-90
2022/11/10 04:33:55;;;;;;;51.55;29.48;;;;;;;7.73;100.00;98970.42;2136475;83;20971;-89
2022/11/10 04:36:56;;;;;;;52.93;29.00;;;;;;;7.76;100.00;98972.22;2136428;83;21061;-89
2022/11/10 04:39:57;;;;;;;48.85;27.05;;;;;;;7.80;100.00;98974.05;2136146;83;21562;-90
2022/11/10 04:42:57;;;;;;;47.62;26.60;;;;;;;7.81;100.00;98981.71;2136615;83;21046;-88
2022/11/10 04:45:58;;;;;;;48.15;28.20;;;;;;;7.83;100.00;98982.86;2136681;83;21030;-88
2022/11/10 04:48:59;;;;;;;48.42;26.77;;;;;;;7.86;100.00;98987.75;2136539;83;20963;-88
2022/11/10 04:51:59;;;;;;;50.00;26.37;;;;;;;7.86;100.00;98987.29;2136522;83;21006;-89
2022/11/10 04:55:00;;;;;;;47.73;26.07;;;;;;;7.89;100.00;98984.36;2136438;83;21014;-87
2022/11/10 04:58:01;;;;;;;52.33;27.30;;;;;;;7.94;100.00;98993.82;2136389;83;21011;-88
2022/11/10 05:01:01;;;;;;;50.83;28.23;;;;;;;7.95;100.00;98994.63;2136547;83;21557;-89
2022/11/10 05:04:04;;;;;;;47.15;26.17;;;;;;;7.96;100.00;98997.60;2136497;83;21030;-88
2022/11/10 05:07:05;;;;;;;49.60;25.23;;;;;;;8.00;100.00;99005.43;2136429;83;21490;-90
2022/11/10 05:10:06;;;;;;;48.45;26.02;;;;;;;8.05;100.00;99002.37;2107726;83;21007;-90
2022/11/10 05:13:06;;;;;;;42.55;25.12;;;;;;;8.05;100.00;99004.48;2136327;83;21023;-89
2022/11/10 05:16:07;;;;;;;49.35;27.45;;;;;;;8.06;100.00;98998.30;2138419;83;20999;-84
2022/11/10 05:19:08;;;;;;;48.23;26.07;;;;;;;8.09;100.00;99005.80;2140842;83;21011;-85
2022/11/10 05:22:09;;;;;;;49.18;26.12;;;;;;;8.14;100.00;99006.16;2139138;83;20948;-89
2022/11/10 05:25:10;;;;;;;50.80;27.02;;;;;;;8.19;100.00;99014.31;2137369;83;20987;-87
2022/11/10 05:28:10;;;;;;;48.40;25.90;;;;;;;8.22;100.00;99021.00;2137667;83;21034;-85
2022/11/10 05:31:11;;;;;;;48.52;25.68;;;;;;;8.26;100.00;99027.55;2139713;83;21011;-85
2022/11/10 05:34:13;;;;;;;49.73;27.77;;;;;;;8.31;100.00;99030.50;2137306;83;21011;-88
2022/11/10 05:37:14;;;;;;;58.63;29.95;;;;;;;8.35;100.00;99040.18;2136589;83;21090;-87
2022/11/10 05:40:15;;;;;;;50.35;27.13;;;;;;;8.35;100.00;99044.91;2137300;83;21078;-88
2022/11/10 05:43:15;;;;;;;53.58;28.80;;;;;;;8.39;100.00;99049.31;2138144;83;21090;-85
2022/11/10 05:46:16;;;;;;;53.52;28.83;;;;;;;8.39;100.00;99051.44;2138898;83;21030;-88
2022/11/10 05:49:17;;;;;;;47.75;25.17;;;;;;;8.40;100.00;99056.16;2136402;83;21034;-89
2022/11/10 05:52:18;;;;;;;46.23;27.02;;;;;;;8.42;100.00;99062.06;2137110;83;21073;-89
2022/11/10 05:55:19;;;;;;;43.13;25.02;;;;;;;8.45;100.00;99067.78;2136460;83;21494;-90
2022/11/10 05:58:19;;;;;;;43.13;24.63;;;;;;;8.46;100.00;99073.81;2136523;83;21059;-90
2022/11/10 06:01:20;;;;;;;42.05;24.40;;;;;;;8.45;100.00;99080.83;2136606;83;21006;-89
2022/11/10 06:04:21;;;;;;;42.62;23.85;;;;;;;8.45;100.00;99089.14;2136622;83;20967;-90
2022/11/10 06:07:22;;;;;;;41.15;22.80;;;;;;;8.48;100.00;99096.65;2136262;83;21090;-90
2022/11/10 06:10:22;;;;;;;42.73;24.75;;;;;;;8.48;100.00;99098.77;2136462;83;21066;-88
2022/11/10 06:13:24;;;;;;;44.95;24.12;;;;;;;8.50;100.00;99106.44;2136225;83;21546;-91
2022/11/10 06:16:25;;;;;;;42.23;24.63;;;;;;;8.50;100.00;99115.58;2138464;83;21078;-84
2022/11/10 06:19:25;;;;;;;40.43;21.95;;;;;;;8.51;100.00;99121.15;2140638;83;20963;-84
2022/11/10 06:22:26;;;;;;;47.23;26.12;;;;;;;8.51;100.00;99124.58;2138916;83;21015;-88
2022/11/10 06:25:27;;;;;;;41.20;23.10;;;;;;;8.51;100.00;99133.71;2138052;83;20979;-87
2022/11/10 06:28:28;;;;;;;44.42;23.62;;;;;;;8.54;100.00;99139.91;2137609;83;21120;-90
2022/11/10 06:31:29;;;;;;;45.83;26.75;;;;;;;8.56;100.00;99146.28;2136372;83;20979;-90
2022/11/10 06:34:29;;;;;;;51.18;27.05;;;;;;;8.58;100.00;99144.81;2136609;82;21454;-90
2022/11/10 06:37:30;;;;;;;42.90;24.37;;;;;;;8.62;100.00;99153.50;2136390;83;21055;-89
2022/11/10 06:40:31;;;;;;;36.38;22.98;;;;;;;8.64;100.00;99150.72;2136415;83;20971;-91
2022/11/10 06:43:32;;;;;;;43.83;25.30;;;;;;;8.64;100.00;99163.78;2114055;83;21063;-90
2022/11/10 06:46:33;;;;;;;38.63;23.07;;;;;;;8.64;100.00;99161.98;2102027;84;21023;-90
2022/11/10 06:49:34;;;;;;;44.63;24.40;;;;;;;8.72;100.00;99172.95;2101945;85;21296;-90
2022/11/10 06:52:34;;;;;;;41.77;24.20;;;;;;;8.72;100.00;99176.38;2101981;83;21018;-88
2022/11/10 06:55:35;;;;;;;41.02;24.63;;;;;;;8.76;100.00;99177.69;2102489;83;21011;-88
2022/11/10 06:58:36;;;;;;;47.65;26.30;;;;;;;8.79;100.00;99177.40;2103169;85;21054;-89
2022/11/10 07:01:37;;;;;;;43.80;24.77;;;;;;;8.82;100.00;99187.52;2102068;85;21018;-92
2022/11/10 07:04:38;;;;;;;42.93;23.47;;;;;;;8.87;100.00;99191.44;2102492;85;21018;-88
2022/11/10 07:07:39;;;;;;;41.00;23.45;;;;;;;8.91;100.00;99195.39;2104412;85;20972;-86
2022/11/10 07:10:40;;;;;;;40.28;23.30;;;;;;;8.90;100.00;99199.80;2104922;84;21011;-87
2022/11/10 07:13:40;;;;;;;42.65;24.57;;;;;;;8.93;100.00;99202.09;2104562;85;20987;-84
2022/11/10 07:16:41;;;;;;;41.33;25.20;;;;;;;9.03;100.00;99204.57;2104242;83;21514;-82
2022/11/10 07:19:42;;;;;;;39.35;23.15;;;;;;;9.08;100.00;99205.75;2104179;84;21028;-90
2022/11/10 07:22:43;;;;;;;38.15;21.33;;;;;;;9.09;100.00;99203.46;2102902;83;20956;-89
2022/11/10 07:25:44;;;;;;;39.35;21.62;;;;;;;9.15;100.00;99205.94;2102363;84;21083;-88
2022/11/10 07:28:45;;;;;;;41.55;24.43;;;;;;;9.20;100.00;99213.30;2103886;85;21038;-86
2022/11/10 07:31:45;;;;;;;41.15;23.77;;;;;;;9.23;100.00;99212.47;2103272;83;20976;-91
2022/11/10 07:34:46;;;;;;;43.38;23.98;;;;;;;9.30;100.00;99214.79;2102393;84;21046;-90
2022/11/10 07:37:47;;;;;;;37.98;22.80;;;;;;;9.34;100.00;99219.23;2102230;85;20974;-90
2022/11/10 07:40:48;;;;;;;38.85;22.25;;;;;;;9.36;100.00;99220.70;2102819;85;20971;-87
2022/11/10 07:43:48;;;;;;;43.55;23.98;;;;;;;9.35;100.00;99222.98;2102611;83;21114;-86
2022/11/10 07:46:49;;;;;;;39.15;22.95;;;;;;;9.40;100.00;99225.11;2102237;84;21007;-85
2022/11/10 07:49:50;;;;;;;42.58;23.80;;;;;;;9.44;100.00;99230.36;2102182;83;21510;-92
2022/11/10 07:52:51;;;;;;;39.73;22.20;;;;;;;9.47;100.00;99239.18;2102262;83;20980;-91
2022/11/10 07:55:52;;;;;;;37.93;22.37;;;;;;;9.50;100.00;99235.42;2102187;83;21014;-93
2022/11/10 07:58:52;;;;;;;41.20;23.73;;;;;;;9.54;100.00;99244.11;2102259;83;20999;-94
2022/11/10 08:01:53;;;;;;;40.98;22.90;;;;;;;9.57;100.00;99251.62;2102166;83;21008;-92
2022/11/10 08:04:54;;;;;;;44.77;23.75;;;;;;;9.60;100.00;99255.23;2102409;84;21079;-92
2022/11/10 08:07:55;;;;;;;43.28;22.75;;;;;;;9.61;100.00;99266.52;2101882;85;21047;-90
2022/11/10 08:10:55;;;;;;;38.63;22.82;;;;;;;9.62;100.00;99265.53;2102075;84;21379;-87
2022/11/10 08:13:56;;;;;;;47.10;23.05;;;;;;;9.63;100.00;99268.47;2102221;84;20987;-88
2022/11/10 08:16:57;;;;;;;39.58;22.20;;;;;;;9.63;100.00;99265.86;2102418;83;20968;-91
2022/11/10 08:19:58;;;;;;;38.42;22.75;;;;;;;9.68;100.00;99272.72;2102427;84;21630;-86
2022/11/10 08:22:59;;;;;;;39.67;21.60;;;;;;;9.73;100.00;99274.87;2102042;84;21047;-83
2022/11/10 08:25:59;;;;;;;40.60;24.02;;;;;;;9.74;100.00;99271.27;2101966;85;22184;-85
2022/11/10 08:29:00;;;;;;;41.30;23.00;;;;;;;9.77;100.00;99272.25;2102203;85;21147;-83
2022/11/10 08:32:01;;;;;;;38.83;22.65;;;;;;;9.79;100.00;99276.36;2102176;84;21467;-86
2022/11/10 08:35:02;;;;;;;41.98;22.27;;;;;;;9.84;100.00;99283.71;2102059;85;21047;-86
2022/11/10 08:38:03;;;;;;;39.38;23.47;;;;;;;9.87;100.00;99286.81;2102093;85;21019;-88
2022/11/10 08:41:04;;;;;;;40.58;22.02;;;;;;;9.92;100.00;99297.63;2102236;83;21079;-85
2022/11/10 08:44:05;;;;;;;40.03;23.30;;;;;;;9.96;100.00;99300.23;2102407;83;21035;-92
2022/11/10 08:47:06;;;;;;;39.53;22.42;;;;;;;10.01;100.00;99302.88;2102493;83;21102;-92
2022/11/10 08:50:07;;;;;;;37.28;21.57;;;;;;;10.09;100.00;99306.31;2090297;85;21510;-92
2022/11/10 08:53:07;;;;;;;42.00;24.57;;;;;;;10.21;100.00;99306.32;2102437;85;21248;-91
2022/11/10 08:56:08;;;;;;;41.13;22.45;;;;;;;10.30;100.00;99308.48;2102260;84;21019;-89
2022/11/10 08:59:09;;;;;;;36.05;21.07;;;;;;;10.36;100.00;99311.77;2102247;85;20999;-86
2022/11/10 09:02:10;;;;;;;37.33;20.72;;;;;;;10.38;100.00;99325.50;2102147;85;20987;-86
2022/11/10 09:05:11;;;;;;;40.20;21.62;;;;;;;10.43;100.00;99324.53;2102130;85;21035;-89
2022/11/10 09:08:12;;;;;;;37.08;20.37;;;;;;;10.51;100.00;99329.78;2102148;85;21027;-86
2022/11/10 09:11:12;;;;;;;37.00;21.20;;;;;;;10.60;100.00;99334.98;2102428;83;21055;-87
2022/11/10 09:14:13;;;;;;;34.98;20.60;;;;;;;10.73;100.00;99341.87;2102297;83;21015;-87
2022/11/10 09:17:14;;;;;;;33.83;20.85;;;;;;;10.77;100.00;99345.78;2103011;85;21014;-86
2022/11/10 09:20:15;;;;;;;30.25;19.62;;;;;;;10.81;100.00;99349.23;2103594;84;21499;-87
2022/11/10 09:23:15;;;;;;;34.67;19.85;;;;;;;10.83;100.00;99345.94;2103048;84;20972;-86
2022/11/10 09:26:16;;;;;;;37.05;20.77;;;;;;;10.89;100.00;99343.66;2103296;83;21076;-87
2022/11/10 09:29:17;;;;;;;32.60;19.32;;;;;;;10.93;100.00;99355.43;2102736;84;21011;-85
2022/11/10 09:32:18;;;;;;;35.90;21.42;;;;;;;10.97;100.00;99356.72;2105910;82;20964;-85
2022/11/10 09:35:18;;;;;;;37.23;21.02;;;;;;;11.02;100.00;99357.05;2171198;82;21010;-86
2022/11/10 09:38:19;;;;;;;33.98;20.77;;;;;;;11.10;100.00;99353.92;2177762;80;21007;-90
2022/11/10 09:41:20;;;;;;;30.82;19.35;;;;;;;11.24;100.00;99349.78;2172296;81;20971;-86
2022/11/10 09:44:21;;;;;;;27.95;18.42;;;;;;;11.38;100.00;99356.96;2176331;82;20979;-87
2022/11/10 09:47:22;;;;;;;30.37;18.87;;;;;;;11.46;100.00;99355.30;2179601;82;21026;-89
2022/11/10 09:50:23;;;;;;;31.10;19.32;;;;;;;11.56;100.00;99365.09;2179342;82;20998;-87
2022/11/10 09:53:23;;;;;;;32.95;18.32;;;;;;;11.65;100.00;99368.02;2179417;82;20967;-88
2022/11/10 09:56:24;;;;;;;31.97;20.23;;;;;;;11.78;100.00;99367.45;2179493;82;21006;-87
2022/11/10 09:59:25;;;;;;;29.95;19.17;;;;;;;11.94;100.00;99368.23;2179091;82;20978;-87
2022/11/10 10:02:28;;;;;;;30.50;17.87;;;;;;;12.04;100.00;99369.31;2179178;82;20997;-87
2022/11/10 10:05:28;;;;;;;31.97;18.48;;;;;;;12.07;100.00;99374.24;2179142;82;21106;-87
2022/11/10 10:08:29;;;;;;;25.45;16.50;;;;;;;12.16;100.00;99378.45;2179142;82;21047;-88
2022/11/10 10:11:30;;;;;;;29.25;18.73;;;;;;;12.21;100.00;99390.55;2179314;82;21074;-87
2022/11/10 10:14:31;;;;;;;27.58;17.73;;;;;;;12.30;100.00;99391.31;2179189;82;21019;-88
2022/11/10 10:17:32;;;;;;;25.82;17.37;;;;;;;12.36;100.00;99393.26;2179332;82;21014;-90
2022/11/10 10:20:33;;;;;;;28.77;16.85;;;;;;;12.41;100.00;99395.34;2180916;82;20953;-86
2022/11/10 10:23:33;;;;;;;31.52;18.32;;;;;;;12.40;100.00;99397.16;2181163;82;20991;-88
2022/11/10 10:26:34;;;;;;;27.85;16.55;;;;;;;12.37;100.00;99392.27;2179284;82;21034;-88
2022/11/10 10:29:35;;;;;;;23.60;15.35;;;;;;;12.40;100.00;99403.72;2179223;82;20963;-87
2022/11/10 10:32:36;;;;;;;27.07;16.87;;;;;;;12.43;100.00;99406.48;2179538;82;21623;-87
2022/11/10 10:35:37;;;;;;;23.95;15.55;;;;;;;12.43;100.00;99407.30;2179153;82;21538;-88
2022/11/10 10:38:38;;;;;;;29.30;18.12;;;;;;;12.45;100.00;99404.03;2179090;82;20991;-88
2022/11/10 10:41:38;;;;;;;29.12;15.95;;;;;;;12.51;100.00;99405.94;2179179;82;21054;-88
2022/11/10 10:44:39;;;;;;;21.33;13.75;;;;;;;12.64;100.00;99412.44;2179032;82;21043;-87
2022/11/10 10:47:40;;;;;;;21.30;13.65;;;;;;;12.61;100.00;99411.45;2179084;82;20995;-88
2022/11/10 10:50:41;;;;;;;24.75;14.83;;;;;;;12.64;100.00;99411.12;2179100;82;21002;-87
2022/11/10 10:53:42;;;;;;;22.77;16.15;;;;;;;12.70;100.00;99412.53;2179298;82;20983;-88
2022/11/10 10:56:42;;;;;;;24.67;16.60;;;;;;;12.73;100.00;99416.64;2179196;82;21018;-87
2022/11/10 10:59:43;;;;;;;22.77;15.20;;;;;;;12.72;100.00;99418.95;2179223;82;21010;-89
2022/11/10 11:02:44;;;;;;;26.50;16.35;;;;;;;12.84;100.00;99420.66;2179224;82;21030;-89
2022/11/10 11:05:45;;;;;;;20.57;14.85;;;;;;;12.87;100.00;99430.30;2179380;82;21031;-88
2022/11/10 11:08:46;;;;;;;22.35;14.35;;;;;;;12.88;100.00;99418.80;2179460;82;21081;-86
2022/11/10 11:11:47;;;;;;;20.77;14.90;;;;;;;12.91;100.00;99420.27;2179334;82;20963;-87
2022/11/10 11:14:47;;;;;;;19.70;12.60;;;;;;;13.00;100.00;99426.59;2179417;82;22092;-87
2022/11/10 11:17:48;;;;;;;20.27;13.45;;;;;;;13.07;100.00;99437.20;2179587;82;20983;-86
2022/11/10 11:20:49;;;;;;;19.80;13.80;;;;;;;13.08;100.00;99424.40;2180329;82;20979;-85
2022/11/10 11:23:50;;;;;;;21.87;13.75;;;;;;;13.10;100.00;99439.49;2179819;82;21073;-83
2022/11/10 11:26:51;;;;;;;23.02;13.28;;;;;;;13.21;100.00;99435.14;2181094;82;20983;-86
2022/11/10 11:29:51;;;;;;;22.10;12.82;;;;;;;13.29;100.00;99444.27;2179680;82;20960;-89
2022/11/10 11:32:52;;;;;;;21.10;12.55;;;;;;;13.35;100.00;99446.20;2179412;82;20971;-87
2022/11/10 11:35:53;;;;;;;17.00;11.95;;;;;;;13.40;100.00;99450.91;2180179;82;20971;-83
2022/11/10 11:38:54;;;;;;;22.50;12.45;;;;;;;13.36;100.00;99444.37;2182353;82;21010;-84
2022/11/10 11:41:55;;;;;;;22.67;13.55;;;;;;;13.30;100.00;99441.14;2181152;82;20990;-85
2022/11/10 11:44:56;;;;;;;18.23;13.72;;;;;;;13.19;100.00;99446.34;2181411;82;22066;-83
2022/11/10 11:47:56;;;;;;;20.48;13.35;;;;;;;13.06;100.00;99445.58;2181946;82;20995;-83
2022/11/10 11:50:57;;;;;;;18.02;12.88;;;;;;;12.97;100.00;99450.59;2181944;82;20975;-83
2022/11/10 11:53:58;;;;;;;20.88;14.95;;;;;;;12.94;100.00;99450.13;2179707;82;21057;-86
2022/11/10 11:56:59;;;;;;;22.13;13.83;;;;;;;12.94;100.00;99459.34;2178989;82;21490;-88
2022/11/10 12:00:00;;;;;;;17.23;12.03;;;;;;;12.94;100.00;99459.34;2179299;82;20983;-89
2022/11/10 12:03:03;;;;;;;22.00;14.03;;;;;;;12.97;100.00;99458.97;2179095;82;21042;-89
2022/11/10 12:06:03;;;;;;;17.57;11.85;;;;;;;12.94;100.00;99461.97;2179397;82;21036;-86
2022/11/10 12:09:04;;;;;;;15.75;11.93;;;;;;;12.88;100.00;99460.03;2179304;82;21110;-88
2022/11/10 12:12:05;;;;;;;19.10;12.80;;;;;;;12.83;100.00;99459.26;2179259;82;21006;-87
2022/11/10 12:15:06;;;;;;;17.37;11.93;;;;;;;12.72;100.00;99465.75;2179454;82;21022;-88
2022/11/10 12:18:06;;;;;;;16.67;11.48;;;;;;;12.64;100.00;99466.30;2180093;82;20995;-85
2022/11/10 12:21:07;;;;;;;15.50;10.75;;;;;;;12.62;100.00;99468.25;2181426;82;21010;-83
2022/11/10 12:24:08;;;;;;;23.67;11.73;;;;;;;12.61;100.00;99464.81;2180645;82;21018;-86
2022/11/10 12:27:09;;;;;;;18.02;11.50;;;;;;;12.62;100.00;99459.06;2179316;82;21022;-88
2022/11/10 12:30:10;;;;;;;15.98;10.75;;;;;;;12.61;100.00;99459.55;2180188;82;20995;-91
2022/11/10 12:33:10;;;;;;;16.37;9.78;;;;;;;12.71;100.00;99465.89;2179613;82;21525;-90
2022/11/10 12:36:11;;;;;;;14.30;9.65;;;;;;;12.87;100.00;99471.05;2180015;82;20979;-88
2022/11/10 12:39:12;;;;;;;17.17;9.18;;;;;;;12.96;100.00;99479.69;2179838;82;21053;-90
2022/11/10 12:42:13;;;;;;;13.25;9.20;;;;;;;13.07;100.00;99481.42;2178525;80;20987;-89
2022/11/10 12:45:13;;;;;;;11.75;8.48;;;;;;;13.16;100.00;99480.02;2179665;82;21141;-87
2022/11/10 12:48:14;;;;;;;9.95;7.65;;;;;;;13.18;100.00;99486.75;2151118;80;21096;-87
2022/11/10 12:51:15;;;;;;;10.63;7.17;;;;;;;13.14;100.00;99491.21;2137483;83;21464;-90
2022/11/10 12:54:15;;;;;;;13.08;7.60;;;;;;;13.13;100.00;99500.09;2158931;80;21004;-89
2022/11/10 12:57:16;;;;;;;12.23;8.05;;;;;;;13.15;100.00;99502.05;2181803;82;21045;-91
2022/11/10 13:00:17;;;;;;;12.73;8.30;;;;;;;13.14;100.00;99497.28;2182158;81;21037;-89
2022/11/10 13:03:20;;;;;;;13.62;8.75;;;;;;;13.10;100.00;99499.96;2181100;81;21017;-93
2022/11/10 13:06:20;;;;;;;10.95;7.50;;;;;;;13.02;100.00;99502.15;2161436;82;20997;-88
2022/11/10 13:09:21;;;;;;;11.40;7.35;;;;;;;12.96;100.00;99509.41;2183620;82;21018;-89
2022/11/10 13:12:22;;;;;;;12.28;7.22;;;;;;;12.89;100.00;99510.28;2181862;81;21049;-89
2022/11/10 13:15:23;;;;;;;8.05;6.30;;;;;;;12.80;100.00;99510.37;2181355;82;20997;-89
2022/11/10 13:18:23;;;;;;;15.23;7.55;;;;;;;12.73;100.00;99515.98;2181287;81;21041;-89
2022/11/10 13:21:24;;;;;;;13.15;7.78;;;;;;;12.66;100.00;99520.30;2182870;81;21056;-89
2022/11/10 13:24:25;;;;;;;11.30;6.87;;;;;;;12.60;100.00;99518.34;2182425;81;20977;-87
2022/11/10 13:27:26;;;;;;;14.23;7.37;;;;;;;12.56;100.00;99526.27;2184931;81;21033;-90
2022/11/10 13:30:26;;;;;;;9.20;7.22;;;;;;;12.51;100.00;99529.89;2185532;81;20989;-89
2022/11/10 13:33:27;;;;;;;11.40;7.45;;;;;;;12.50;100.00;99534.83;2185762;81;21017;-88
2022/11/10 13:36:28;;;;;;;10.95;7.58;;;;;;;12.53;100.00;99536.63;2180874;80;21001;-87
2022/11/10 13:39:29;;;;;;;12.40;7.40;;;;;;;12.55;100.00;99536.95;2188296;80;20994;-86
2022/11/10 13:42:29;;;;;;;20.15;13.32;;;;;;;12.55;100.00;99532.52;2183098;81;21000;-86
2022/11/10 13:45:31;;;;;;;12.13;7.75;;;;;;;12.51;100.00;99535.14;2170203;81;20970;-85
2022/11/10 13:48:33;;;;;;;13.72;9.35;;;;;;;12.50;100.00;99538.27;2187489;81;21111;-86
2022/11/10 13:51:33;;;;;;;14.98;9.38;;;;;;;12.49;100.00;99545.83;2187811;81;20957;-88
2022/11/10 13:54:34;;;;;;;8.68;6.85;;;;;;;12.50;100.00;99551.40;2188065;81;21476;-88
2022/11/10 13:57:35;;;;;;;12.23;7.75;;;;;;;12.48;100.00;99561.27;2187808;81;20962;-87